Boa Vista das Missoes, Brazil
Current Conditions -  °F | °C
As of 6:00 AM on Wednesday 26 Nov 2014 (Local Time) from SBCH Reporting Station
Moderate Fog Moderate Fog  
Wind Chill: 64°   Ceiling: 500
Heat Index: 64°   Visibility: 3mi
Dew Point: 64°   Wind: 9mph
Humidity: 100%   Direction: 140°SE
Pressure: 29.8"   Gusts: NA
Location:  27.66°S, 53.31°W
Report Text: SBCH 260800Z 14008KT 5000 VCFG BR FEW003 OVC005 18/18 Q1009
Loading
Personal Weather Stations






























Interactive Weather Map New forecast layout! Learn more

10-Day Weather Forecast

Advertisements
Track Severe Weather on mobile